createdAt,value
2023-05-06T00:02:09.351Z,97525.72
2023-05-06T00:04:40.144Z,97514.38
2023-05-06T00:07:10.729Z,97515.66
2023-05-06T00:09:41.369Z,97516.31
2023-05-06T00:12:13.608Z,97515.50
2023-05-06T00:14:45.430Z,97514.34
2023-05-06T00:17:15.708Z,97511.53
2023-05-06T00:19:45.669Z,97515.03
2023-05-06T00:22:16.323Z,97514.53
2023-05-06T00:24:46.878Z,97519.75
2023-05-06T00:27:17.824Z,97523.09
2023-05-06T00:29:49.000Z,97515.78
2023-05-06T00:32:19.086Z,97514.81
2023-05-06T00:34:49.106Z,97512.63
2023-05-06T00:37:19.791Z,97512.78
2023-05-06T00:39:49.708Z,97507.56
2023-05-06T00:42:23.338Z,97523.88
2023-05-06T00:44:54.750Z,97520.47
2023-05-06T00:47:28.868Z,97522.56
2023-05-06T00:49:59.205Z,97527.91
2023-05-06T00:52:32.627Z,97518.88
2023-05-06T00:55:03.074Z,97520.63
2023-05-06T00:57:35.068Z,97527.28
2023-05-06T01:00:07.404Z,97530.13
2023-05-06T01:02:46.194Z,97522.91
2023-05-06T01:05:18.677Z,97526.00
2023-05-06T01:07:54.719Z,97532.44
2023-05-06T01:10:31.794Z,97531.56
2023-05-06T01:13:09.134Z,97522.81
2023-05-06T01:15:43.799Z,97526.44
2023-05-06T01:18:18.378Z,97528.66
2023-05-06T01:20:51.789Z,97524.13
2023-05-06T01:23:23.556Z,97526.53
2023-05-06T01:25:53.794Z,97531.97
2023-05-06T01:28:24.120Z,97541.44
2023-05-06T01:30:59.995Z,97536.81
2023-05-06T01:33:37.474Z,97542.00
2023-05-06T01:36:15.738Z,97534.19
2023-05-06T01:38:53.031Z,97536.22
2023-05-06T01:41:23.621Z,97534.28
2023-05-06T01:43:56.205Z,97538.16
2023-05-06T01:46:27.865Z,97537.16
2023-05-06T01:48:59.755Z,97534.78
2023-05-06T01:51:29.723Z,97531.94
2023-05-06T01:54:01.359Z,97533.34
2023-05-06T01:56:32.491Z,97530.84
2023-05-06T01:59:02.839Z,97531.50
2023-05-06T02:01:32.772Z,97534.22
2023-05-06T02:04:03.682Z,97530.16
2023-05-06T02:06:33.865Z,97538.19
2023-05-06T02:09:06.968Z,97538.22
2023-05-06T02:11:37.902Z,97538.59
2023-05-06T02:14:09.795Z,97534.00
2023-05-06T02:16:39.888Z,97533.03
2023-05-06T02:19:10.828Z,97531.06
2023-05-06T02:21:41.599Z,97528.00
2023-05-06T02:24:13.411Z,97524.44
2023-05-06T02:26:43.420Z,97522.22
2023-05-06T02:29:14.071Z,97523.63
2023-05-06T02:31:44.099Z,97511.97
2023-05-06T02:34:14.952Z,97518.09
2023-05-06T02:36:45.559Z,97515.56
2023-05-06T02:39:17.799Z,97508.59
2023-05-06T02:41:48.698Z,97506.19
2023-05-06T02:44:18.965Z,97508.91
2023-05-06T02:46:48.859Z,97511.03
2023-05-06T02:49:19.366Z,97511.38
2023-05-06T02:51:48.603Z,97501.06
2023-05-06T02:54:19.972Z,97503.47
2023-05-06T02:56:50.153Z,97505.31
2023-05-06T02:59:20.237Z,97501.28
2023-05-06T03:01:50.890Z,97503.03
2023-05-06T03:04:21.546Z,97497.81
2023-05-06T03:06:51.610Z,97503.03
2023-05-06T03:09:23.050Z,97495.19
2023-05-06T03:11:52.894Z,97504.66
2023-05-06T03:14:23.381Z,97502.47
2023-05-06T03:16:53.255Z,97507.94
2023-05-06T03:19:23.614Z,97515.59
2023-05-06T03:21:53.631Z,97509.75
2023-05-06T03:24:25.715Z,97511.97
2023-05-06T03:26:55.582Z,97514.25
2023-05-06T03:29:25.536Z,97504.09
2023-05-06T03:31:58.966Z,97500.75
2023-05-06T03:34:29.385Z,97504.06
2023-05-06T03:36:59.359Z,97504.03
2023-05-06T03:39:31.584Z,97493.00
2023-05-06T03:42:02.550Z,97488.31
2023-05-06T03:44:32.352Z,97495.59
2023-05-06T03:47:02.576Z,97495.84
2023-05-06T03:49:32.633Z,97493.25
2023-05-06T03:52:03.216Z,97484.50
2023-05-06T03:54:34.962Z,97478.41
2023-05-06T03:57:05.906Z,97490.19
2023-05-06T03:59:36.247Z,97483.22
2023-05-06T04:02:05.961Z,97487.59
2023-05-06T04:04:36.332Z,97487.03
2023-05-06T04:07:06.607Z,97496.53
2023-05-06T04:09:37.704Z,97498.97
2023-05-06T04:12:08.492Z,97496.38
2023-05-06T04:14:38.398Z,97498.66
2023-05-06T04:17:09.909Z,97496.72
2023-05-06T04:19:39.934Z,97502.03
2023-05-06T04:22:09.607Z,97498.25
2023-05-06T04:24:46.024Z,97493.44
2023-05-06T04:27:17.112Z,97494.97
2023-05-06T04:29:47.762Z,97490.81
2023-05-06T04:32:18.412Z,97484.91
2023-05-06T04:34:48.497Z,97492.75
2023-05-06T04:37:19.034Z,97506.91
2023-05-06T04:39:50.075Z,97514.78
2023-05-06T04:42:19.896Z,97508.03
2023-05-06T04:44:49.974Z,97505.66
2023-05-06T04:47:20.660Z,97503.97
2023-05-06T04:49:51.125Z,97510.38
2023-05-06T04:52:21.531Z,97526.09
2023-05-06T04:54:53.159Z,97520.91
2023-05-06T04:57:23.574Z,97521.91
2023-05-06T04:59:53.529Z,97524.97
2023-05-06T05:02:23.863Z,97531.44
2023-05-06T05:04:53.934Z,97528.44
2023-05-06T05:07:25.069Z,97538.50
2023-05-06T05:09:58.504Z,97540.34
2023-05-06T05:12:28.002Z,97538.94
2023-05-06T05:14:57.950Z,97532.38
2023-05-06T05:17:28.631Z,97532.91
2023-05-06T05:19:58.549Z,97534.47
2023-05-06T05:22:28.379Z,97536.19
2023-05-06T05:24:59.641Z,97545.22
2023-05-06T05:27:29.527Z,97535.44
2023-05-06T05:29:59.854Z,97542.09
2023-05-06T05:32:30.247Z,97540.38
2023-05-06T05:34:59.910Z,97540.59
2023-05-06T05:37:30.238Z,97551.38
2023-05-06T05:40:02.402Z,97545.16
2023-05-06T05:42:34.175Z,97535.47
2023-05-06T05:45:04.333Z,97541.09
2023-05-06T05:47:34.191Z,97543.75
2023-05-06T05:50:04.738Z,97553.78
2023-05-06T05:52:34.248Z,97553.69
2023-05-06T05:55:05.979Z,97555.78
2023-05-06T05:57:35.589Z,97558.56
2023-05-06T06:00:07.190Z,97552.69
2023-05-06T06:02:37.879Z,97558.50
2023-05-06T06:05:10.515Z,97565.47
2023-05-06T06:07:40.761Z,97565.47
2023-05-06T06:10:14.660Z,97561.31
2023-05-06T06:12:45.196Z,97565.81
2023-05-06T06:15:15.231Z,97562.50
2023-05-06T06:17:45.384Z,97560.78
2023-05-06T06:20:16.360Z,97576.94
2023-05-06T06:22:47.462Z,97566.66
2023-05-06T06:25:19.817Z,97570.50
2023-05-06T06:27:50.106Z,97570.19
2023-05-06T06:30:20.303Z,97571.69
2023-05-06T06:32:51.557Z,97573.00
2023-05-06T06:35:22.514Z,97571.91
2023-05-06T06:37:52.543Z,97567.09
2023-05-06T06:40:24.494Z,97569.25
2023-05-06T06:42:54.943Z,97569.72
2023-05-06T06:45:25.767Z,97569.25
2023-05-06T06:47:55.850Z,97571.91
2023-05-06T06:50:27.529Z,97569.50
2023-05-06T06:52:57.700Z,97568.72
2023-05-06T06:55:29.956Z,97565.66
2023-05-06T06:58:00.656Z,97563.47
2023-05-06T07:00:30.366Z,97557.22
2023-05-06T07:03:00.869Z,97563.09
2023-05-06T07:05:30.560Z,97561.16
2023-05-06T07:08:00.986Z,97565.13
2023-05-06T07:10:33.430Z,97559.66
2023-05-06T07:13:04.109Z,97561.84
2023-05-06T07:15:34.426Z,97559.56
2023-05-06T07:18:04.717Z,97560.63
2023-05-06T07:20:35.229Z,97566.09
2023-05-06T07:23:06.007Z,97563.81
2023-05-06T07:25:38.081Z,97558.84
2023-05-06T07:28:08.575Z,97559.38
2023-05-06T07:30:40.938Z,97563.94
2023-05-06T07:33:10.691Z,97560.78
2023-05-06T07:35:40.950Z,97565.41
2023-05-06T07:38:11.847Z,97562.75
2023-05-06T07:40:44.060Z,97557.84
2023-05-06T07:43:13.926Z,97554.78
2023-05-06T07:45:44.596Z,97555.66
2023-05-06T07:48:14.866Z,97556.19
2023-05-06T07:50:44.899Z,97560.88
2023-05-06T07:53:15.296Z,97556.56
2023-05-06T07:55:46.956Z,97559.69
2023-05-06T07:58:20.296Z,97551.91
2023-05-06T08:00:50.139Z,97558.41
2023-05-06T08:03:20.649Z,97560.81
2023-05-06T08:05:52.702Z,97558.34
2023-05-06T08:08:23.077Z,97561.22
2023-05-06T08:10:54.666Z,97551.06
2023-05-06T08:13:25.253Z,97564.28
2023-05-06T08:15:56.033Z,97553.22
2023-05-06T08:18:26.536Z,97553.38
2023-05-06T08:20:57.393Z,97556.88
2023-05-06T08:23:28.162Z,97551.22
2023-05-06T08:25:59.476Z,97552.44
2023-05-06T08:28:30.269Z,97554.84
2023-05-06T08:31:02.253Z,97549.69
2023-05-06T08:33:32.854Z,97549.16
2023-05-06T08:36:02.995Z,97551.03
2023-05-06T08:38:33.058Z,97545.53
2023-05-06T08:41:11.265Z,97553.03
2023-05-06T08:43:44.185Z,97555.66
2023-05-06T08:46:14.381Z,97558.75
2023-05-06T08:48:45.543Z,97545.03
2023-05-06T08:51:17.124Z,97542.00
2023-05-06T08:53:51.986Z,97550.53
2023-05-06T08:56:25.567Z,97551.16
2023-05-06T08:58:56.514Z,97544.56
2023-05-06T09:01:29.236Z,97542.13
2023-05-06T09:04:00.437Z,97538.66
2023-05-06T09:06:30.438Z,97540.94
2023-05-06T09:09:00.569Z,97541.69
2023-05-06T09:11:32.649Z,97547.19
2023-05-06T09:14:13.698Z,97541.69
2023-05-06T09:16:46.238Z,97534.19
2023-05-06T09:19:17.876Z,97540.31
2023-05-06T09:21:51.494Z,97527.03
2023-05-06T09:24:22.207Z,97528.81
2023-05-06T09:27:07.177Z,97530.00
2023-05-06T09:29:39.762Z,97537.56
2023-05-06T09:32:12.022Z,97531.03
2023-05-06T09:34:46.837Z,97531.78
2023-05-06T09:37:17.087Z,97530.38
2023-05-06T09:39:46.846Z,97530.88
2023-05-06T09:42:19.019Z,97527.59
2023-05-06T09:44:49.475Z,97529.94
2023-05-06T09:47:20.633Z,97520.69
2023-05-06T09:49:51.902Z,97517.38
2023-05-06T09:52:22.437Z,97514.94
2023-05-06T09:54:52.853Z,97517.16
2023-05-06T09:57:25.715Z,97511.50
2023-05-06T09:59:56.889Z,97506.09
2023-05-06T10:02:28.771Z,97514.41
2023-05-06T10:05:02.000Z,97508.16
2023-05-06T10:07:32.221Z,97505.63
2023-05-06T10:10:03.341Z,97493.81
2023-05-06T10:12:34.645Z,97496.66
2023-05-06T10:15:07.061Z,97501.19
2023-05-06T10:17:41.040Z,97500.97
2023-05-06T10:20:12.510Z,97492.88
2023-05-06T10:22:51.608Z,97491.06
2023-05-06T10:25:30.274Z,97484.63
2023-05-06T10:28:06.248Z,97487.03
2023-05-06T10:30:39.442Z,97479.06
2023-05-06T10:33:10.767Z,97479.91
2023-05-06T10:35:49.487Z,97480.75
2023-05-06T10:38:26.130Z,97479.69
2023-05-06T10:40:56.693Z,97470.69
2023-05-06T10:43:29.937Z,97467.47
2023-05-06T10:46:09.525Z,97461.06
2023-05-06T10:48:41.645Z,97467.25
2023-05-06T10:51:28.680Z,97455.75
2023-05-06T10:54:02.910Z,97452.13
2023-05-06T10:56:35.344Z,97451.28
2023-05-06T10:59:12.066Z,97436.78
2023-05-06T11:01:43.764Z,97437.16
2023-05-06T11:04:15.673Z,97443.28
2023-05-06T11:06:47.132Z,97446.03
2023-05-06T11:09:21.206Z,97442.34
2023-05-06T11:12:03.174Z,97440.81
2023-05-06T11:14:37.161Z,97434.88
2023-05-06T11:17:08.976Z,97441.88
2023-05-06T11:19:40.516Z,97438.03
2023-05-06T11:22:10.781Z,97433.84
2023-05-06T11:24:42.348Z,97432.63
2023-05-06T11:27:12.920Z,97434.34
2023-05-06T11:29:45.477Z,97432.94
2023-05-06T11:32:24.999Z,97425.78
2023-05-06T11:34:58.248Z,97433.50
2023-05-06T11:37:30.398Z,97430.13
2023-05-06T11:40:00.257Z,97435.59
2023-05-06T11:42:30.963Z,97432.69
2023-05-06T11:45:04.164Z,97427.19
2023-05-06T11:47:34.962Z,97427.56
2023-05-06T11:50:08.014Z,97433.25
2023-05-06T11:52:38.177Z,97426.81
2023-05-06T11:55:12.014Z,97425.94
2023-05-06T11:57:47.898Z,97427.78
2023-05-06T12:00:20.620Z,97440.06
2023-05-06T12:02:51.074Z,97442.00
2023-05-06T12:05:25.335Z,97433.13
2023-05-06T12:07:55.583Z,97440.91
2023-05-06T12:10:25.803Z,97447.88
2023-05-06T12:12:56.208Z,97448.28
2023-05-06T12:15:28.692Z,97442.50
2023-05-06T12:17:59.618Z,97438.75
2023-05-06T12:20:30.186Z,97429.50
2023-05-06T12:23:08.847Z,97431.88
2023-05-06T12:25:39.040Z,97434.16
2023-05-06T12:28:17.394Z,97435.06
2023-05-06T12:30:49.942Z,97441.66
2023-05-06T12:33:20.217Z,97435.38
2023-05-06T12:35:52.004Z,97442.16
2023-05-06T12:38:22.998Z,97445.00
2023-05-06T12:40:57.427Z,97439.44
2023-05-06T12:43:32.830Z,97439.56
2023-05-06T12:46:09.560Z,97435.03
2023-05-06T12:48:39.939Z,97430.47
2023-05-06T12:51:23.086Z,97428.28
2023-05-06T12:53:53.534Z,97433.94
2023-05-06T12:56:25.087Z,97417.22
2023-05-06T12:59:02.827Z,97421.22
2023-05-06T13:01:34.905Z,97409.44
2023-05-06T13:04:05.342Z,97414.78
2023-05-06T13:06:35.984Z,97414.38
2023-05-06T13:09:06.703Z,97418.88
2023-05-06T13:11:37.002Z,97405.38
2023-05-06T13:14:08.039Z,97407.97
2023-05-06T13:16:42.726Z,97398.66
2023-05-06T13:19:30.769Z,97398.72
2023-05-06T13:22:03.303Z,97395.25
2023-05-06T13:24:34.516Z,97398.28
2023-05-06T13:27:04.456Z,97397.06
2023-05-06T13:29:34.554Z,97396.75
2023-05-06T13:32:08.653Z,97395.78
2023-05-06T13:34:39.210Z,97390.00
2023-05-06T13:37:09.069Z,97384.22
2023-05-06T13:39:40.093Z,97376.09
2023-05-06T13:42:09.978Z,97379.69
2023-05-06T13:44:40.096Z,97357.38
2023-05-06T13:47:11.957Z,97370.44
2023-05-06T13:49:42.348Z,97367.75
2023-05-06T13:52:13.082Z,97374.09
2023-05-06T13:54:43.340Z,97373.13
2023-05-06T13:57:13.494Z,97373.66
2023-05-06T13:59:44.198Z,97378.16
2023-05-06T14:02:17.148Z,97372.13
2023-05-06T14:04:47.702Z,97365.31
2023-05-06T14:07:18.434Z,97365.81
2023-05-06T14:09:48.253Z,97367.59
2023-05-06T14:12:19.878Z,97359.00
2023-05-06T14:14:50.612Z,97361.28
2023-05-06T14:17:23.138Z,97352.97
2023-05-06T14:19:53.198Z,97357.75
2023-05-06T14:22:25.384Z,97351.19
2023-05-06T14:24:55.251Z,97352.97
2023-05-06T14:27:25.234Z,97355.22
2023-05-06T14:29:55.467Z,97359.75
2023-05-06T14:32:26.930Z,97358.50
2023-05-06T14:34:57.227Z,97359.00
2023-05-06T14:37:28.165Z,97362.03
2023-05-06T14:39:59.892Z,97364.03
2023-05-06T14:42:30.904Z,97362.81
2023-05-06T14:45:01.900Z,97365.25
2023-05-06T14:47:34.844Z,97366.81
2023-05-06T14:50:04.806Z,97359.75
2023-05-06T14:52:36.200Z,97362.97
2023-05-06T14:55:08.752Z,97360.25
2023-05-06T14:57:39.444Z,97370.72
2023-05-06T15:00:13.576Z,97370.28
2023-05-06T15:02:47.133Z,97367.47
2023-05-06T15:05:18.041Z,97372.78
2023-05-06T15:07:48.636Z,97367.56
2023-05-06T15:10:19.193Z,97371.44
2023-05-06T15:12:49.810Z,97372.84
2023-05-06T15:15:20.391Z,97378.66
2023-05-06T15:17:53.054Z,97380.13
2023-05-06T15:20:24.347Z,97388.50
2023-05-06T15:22:54.588Z,97376.00
2023-05-06T15:25:34.962Z,97384.88
2023-05-06T15:28:07.356Z,97386.59
2023-05-06T15:30:39.443Z,97386.22
2023-05-06T15:33:12.248Z,97390.00
2023-05-06T15:35:43.130Z,97401.09
2023-05-06T15:38:14.520Z,97398.81
2023-05-06T15:40:52.928Z,97399.44
2023-05-06T15:43:24.595Z,97414.41
2023-05-06T15:45:55.582Z,97409.78
2023-05-06T15:48:26.573Z,97419.59
2023-05-06T15:50:57.711Z,97431.84
2023-05-06T15:53:29.198Z,97429.41
2023-05-06T15:56:07.517Z,97440.75
2023-05-06T15:58:46.885Z,97437.09
2023-05-06T16:01:20.812Z,97443.00
2023-05-06T16:03:57.058Z,97437.22
2023-05-06T16:06:28.061Z,97422.19
2023-05-06T16:09:00.149Z,97416.59
2023-05-06T16:11:31.037Z,97434.22
2023-05-06T16:14:01.345Z,97439.50
2023-05-06T16:16:32.732Z,97446.31
2023-05-06T16:19:04.924Z,97446.69
2023-05-06T16:21:35.257Z,97444.41
2023-05-06T16:24:06.592Z,97444.09
2023-05-06T16:26:36.770Z,97438.56
2023-05-06T16:29:07.176Z,97447.84
2023-05-06T16:31:38.342Z,97454.25
2023-05-06T16:34:09.866Z,97468.09
2023-05-06T16:36:40.546Z,97475.59
2023-05-06T16:39:10.578Z,97484.13
2023-05-06T16:41:40.581Z,97482.91
2023-05-06T16:44:10.902Z,97494.69
2023-05-06T16:46:41.367Z,97485.13
2023-05-06T16:49:12.658Z,97494.34
2023-05-06T16:51:43.283Z,97502.72
2023-05-06T16:54:13.506Z,97508.38
2023-05-06T16:56:52.200Z,97509.44
2023-05-06T16:59:23.929Z,97509.31
2023-05-06T17:01:54.886Z,97517.59
2023-05-06T17:04:27.248Z,97530.91
2023-05-06T17:06:58.185Z,97526.91
2023-05-06T17:09:28.876Z,97528.06
2023-05-06T17:11:59.325Z,97538.00
2023-05-06T17:14:29.741Z,97527.59
2023-05-06T17:17:03.261Z,97543.16
2023-05-06T17:19:37.144Z,97536.75
2023-05-06T17:22:08.587Z,97525.22
2023-05-06T17:24:38.795Z,97516.63
2023-05-06T17:27:09.660Z,97521.06
2023-05-06T17:29:40.160Z,97527.81
2023-05-06T17:32:11.495Z,97523.69
2023-05-06T17:34:42.951Z,97521.72
2023-05-06T17:37:12.853Z,97525.13
2023-05-06T17:39:43.164Z,97529.66
2023-05-06T17:42:14.236Z,97532.31
2023-05-06T17:44:45.494Z,97534.88
2023-05-06T17:47:18.165Z,97542.56
2023-05-06T17:49:51.404Z,97535.44
2023-05-06T17:52:21.729Z,97538.00
2023-05-06T17:55:10.642Z,97542.56
2023-05-06T17:57:41.556Z,97543.97
2023-05-06T18:00:14.371Z,97547.78
2023-05-06T18:02:45.507Z,97555.13
2023-05-06T18:05:18.879Z,97559.06
2023-05-06T18:07:49.844Z,97573.22
2023-05-06T18:10:21.215Z,97575.66
2023-05-06T18:12:51.572Z,97578.84
2023-05-06T18:15:22.587Z,97584.22
2023-05-06T18:17:52.338Z,97574.81
2023-05-06T18:20:24.203Z,97569.00
2023-05-06T18:22:54.804Z,97571.84
2023-05-06T18:25:25.597Z,97574.41
2023-05-06T18:27:56.280Z,97584.50
2023-05-06T18:30:26.536Z,97586.59
2023-05-06T18:32:57.172Z,97590.41
2023-05-06T18:35:28.804Z,97588.72
2023-05-06T18:37:59.506Z,97589.72
2023-05-06T18:40:29.801Z,97582.72
2023-05-06T18:43:00.288Z,97581.34
2023-05-06T18:45:30.720Z,97585.31
2023-05-06T18:48:01.512Z,97595.84
2023-05-06T18:50:32.800Z,97599.75
2023-05-06T18:53:03.536Z,97607.50
2023-05-06T18:55:34.252Z,97609.47
2023-05-06T18:58:06.075Z,97611.63
2023-05-06T19:00:37.392Z,97618.34
2023-05-06T19:03:07.528Z,97607.22
2023-05-06T19:05:39.179Z,97595.53
2023-05-06T19:08:10.635Z,97599.91
2023-05-06T19:10:41.146Z,97604.22
2023-05-06T19:13:16.045Z,97606.50
2023-05-06T19:15:46.720Z,97617.94
2023-05-06T19:18:17.407Z,97629.28
2023-05-06T19:20:49.654Z,97634.59
2023-05-06T19:23:20.284Z,97628.47
2023-05-06T19:25:50.166Z,97629.75
2023-05-06T19:28:20.966Z,97635.22
2023-05-06T19:30:51.036Z,97634.94
2023-05-06T19:33:21.123Z,97640.31
2023-05-06T19:35:52.595Z,97652.75
2023-05-06T19:38:23.304Z,97649.50
2023-05-06T19:40:52.694Z,97654.63
2023-05-06T19:43:24.900Z,97654.44
2023-05-06T19:45:55.454Z,97659.25
2023-05-06T19:48:26.816Z,97658.53
2023-05-06T19:51:00.594Z,97664.16
2023-05-06T19:53:31.321Z,97665.66
2023-05-06T19:56:09.642Z,97662.63
2023-05-06T19:58:40.085Z,97656.78
2023-05-06T20:01:11.471Z,97647.34
2023-05-06T20:03:42.636Z,97648.72
2023-05-06T20:06:14.689Z,97647.06
2023-05-06T20:08:47.111Z,97649.44
2023-05-06T20:11:17.217Z,97650.44
2023-05-06T20:13:48.033Z,97647.88
2023-05-06T20:16:18.394Z,97651.22
2023-05-06T20:18:48.137Z,97644.16
2023-05-06T20:21:19.280Z,97645.69
2023-05-06T20:23:50.389Z,97635.47
2023-05-06T20:26:20.434Z,97628.91
2023-05-06T20:28:52.791Z,97638.31
2023-05-06T20:31:23.100Z,97634.59
2023-05-06T20:33:53.028Z,97638.03
2023-05-06T20:36:25.116Z,97642.09
2023-05-06T20:38:55.438Z,97643.28
2023-05-06T20:41:25.842Z,97637.09
2023-05-06T20:43:57.480Z,97638.72
2023-05-06T20:46:27.527Z,97635.78
2023-05-06T20:48:57.352Z,97638.13
2023-05-06T20:51:29.682Z,97636.72
2023-05-06T20:54:00.963Z,97639.66
2023-05-06T20:56:31.765Z,97646.41
2023-05-06T20:59:02.294Z,97644.78
2023-05-06T21:01:32.026Z,97637.34
2023-05-06T21:04:03.939Z,97641.16
2023-05-06T21:06:35.053Z,97631.31
2023-05-06T21:09:06.913Z,97636.78
2023-05-06T21:11:37.590Z,97626.31
2023-05-06T21:14:07.920Z,97627.03
2023-05-06T21:16:37.651Z,97620.38
2023-05-06T21:19:07.261Z,97624.94
2023-05-06T21:21:38.758Z,97620.16
2023-05-06T21:24:09.279Z,97624.28
2023-05-06T21:26:40.712Z,97625.94
2023-05-06T21:29:10.711Z,97620.44
2023-05-06T21:31:41.062Z,97626.38
2023-05-06T21:34:11.774Z,97624.31
2023-05-06T21:36:44.354Z,97628.06
2023-05-06T21:39:16.302Z,97628.28
2023-05-06T21:41:46.140Z,97629.44
2023-05-06T21:44:16.545Z,97639.53
2023-05-06T21:46:46.945Z,97639.88
2023-05-06T21:49:17.190Z,97639.53
2023-05-06T21:51:48.839Z,97639.53
2023-05-06T21:54:19.049Z,97641.03
2023-05-06T21:56:49.374Z,97639.94
2023-05-06T21:59:20.323Z,97636.47
2023-05-06T22:01:50.012Z,97627.78
2023-05-06T22:04:21.200Z,97612.78
2023-05-06T22:06:52.372Z,97610.38
2023-05-06T22:09:23.717Z,97617.34
2023-05-06T22:11:53.933Z,97610.09
2023-05-06T22:14:26.944Z,97612.06
2023-05-06T22:17:01.856Z,97599.09
2023-05-06T22:19:33.258Z,97604.22
2023-05-06T22:22:05.686Z,97606.84
2023-05-06T22:24:35.949Z,97600.75
2023-05-06T22:27:05.991Z,97606.00
2023-05-06T22:29:36.266Z,97607.63
2023-05-06T22:32:07.409Z,97601.03
2023-05-06T22:34:37.463Z,97604.97
2023-05-06T22:37:12.662Z,97607.91
2023-05-06T22:39:42.906Z,97604.75
2023-05-06T22:42:12.639Z,97610.66
2023-05-06T22:44:42.948Z,97606.16
2023-05-06T22:47:13.349Z,97609.88
2023-05-06T22:49:43.960Z,97609.44
2023-05-06T22:52:15.678Z,97607.66
2023-05-06T22:54:45.668Z,97605.72
2023-05-06T22:57:15.779Z,97612.75
2023-05-06T22:59:46.205Z,97615.84
2023-05-06T23:02:16.770Z,97624.59
2023-05-06T23:04:46.801Z,97623.94
2023-05-06T23:07:18.341Z,97622.03
2023-05-06T23:09:48.811Z,97634.47
2023-05-06T23:12:19.795Z,97621.84
2023-05-06T23:14:50.297Z,97621.59
2023-05-06T23:17:20.508Z,97626.81
2023-05-06T23:19:50.667Z,97625.94
2023-05-06T23:22:22.592Z,97623.69
2023-05-06T23:24:53.521Z,97627.59
2023-05-06T23:27:25.885Z,97621.50
2023-05-06T23:29:56.642Z,97618.97
2023-05-06T23:32:27.659Z,97613.31
2023-05-06T23:34:57.928Z,97608.53
2023-05-06T23:37:29.305Z,97600.69
2023-05-06T23:39:59.962Z,97596.34
2023-05-06T23:42:30.308Z,97578.91
2023-05-06T23:45:00.994Z,97584.91
2023-05-06T23:47:31.099Z,97582.94
2023-05-06T23:50:01.703Z,97579.78
2023-05-06T23:52:33.612Z,97576.06
2023-05-06T23:55:04.903Z,97574.09
2023-05-06T23:57:35.492Z,97562.00
